Time;durP1;ratioP1;P1;durP2;ratioP2;P2;SDS_P1;SDS_P2;PMS_P1;PMS_P2;Temp;Humidity;BMP_temperature;BMP_pressure;BME280_temperature;BME280_humidity;BME280_pressure;Samples;Min_cycle;Max_cycle;Signal;HPM_P1;HPM_P2
2021/03/15 00:01:11;;;;;;;7.13;3.65;;;7.70;93.50;;;;;;5046269;28;20033;-70
2021/03/15 00:03:38;;;;;;;7.43;3.72;;;7.70;93.50;;;;;;5052550;28;20024;-70
2021/03/15 00:06:04;;;;;;;6.97;4.10;;;7.60;93.60;;;;;;5041551;28;20377;-70
2021/03/15 00:08:30;;;;;;;7.35;3.85;;;7.60;93.70;;;;;;5032832;28;20037;-70
2021/03/15 00:10:56;;;;;;;9.00;4.18;;;7.60;93.70;;;;;;5047736;28;20469;-70
2021/03/15 00:13:22;;;;;;;8.05;3.90;;;7.50;93.70;;;;;;5055334;28;20086;-70
2021/03/15 00:15:49;;;;;;;8.35;4.03;;;7.50;93.80;;;;;;5061603;28;20040;-70
2021/03/15 00:18:16;;;;;;;6.40;3.45;;;7.50;93.90;;;;;;5060236;28;20036;-70
2021/03/15 00:20:42;;;;;;;4.93;3.30;;;7.40;93.90;;;;;;5063336;28;20028;-70
2021/03/15 00:23:07;;;;;;;7.18;3.70;;;7.40;94.00;;;;;;5067943;28;20074;-70
2021/03/15 00:25:33;;;;;;;6.65;3.42;;;7.40;94.00;;;;;;5050760;28;20036;-69
2021/03/15 00:27:58;;;;;;;5.47;3.13;;;7.40;94.00;;;;;;5050578;28;20020;-68
2021/03/15 00:30:24;;;;;;;5.80;3.50;;;7.40;94.00;;;;;;5051495;28;20063;-69
2021/03/15 00:32:50;;;;;;;5.15;3.30;;;7.40;94.00;;;;;;5051924;28;20429;-68
2021/03/15 00:35:17;;;;;;;7.57;3.30;;;7.40;94.10;;;;;;5051433;28;20040;-69
2021/03/15 00:37:43;;;;;;;8.18;3.40;;;7.40;94.10;;;;;;5069566;28;20059;-69
2021/03/15 00:40:14;;;;;;;5.80;3.72;;;7.40;94.20;;;;;;5051265;28;20056;-69
2021/03/15 00:42:48;;;;;;;7.35;3.40;;;7.40;94.20;;;;;;5051346;28;20382;-68
2021/03/15 00:45:15;;;;;;;4.97;3.25;;;7.40;94.20;;;;;;5059320;28;20032;-69
2021/03/15 00:47:41;;;;;;;6.45;3.45;;;7.40;94.20;;;;;;5056848;28;20614;-69
2021/03/15 00:50:11;;;;;;;6.40;3.05;;;7.40;94.20;;;;;;5050801;28;20059;-69
2021/03/15 00:52:37;;;;;;;6.50;3.50;;;7.40;94.20;;;;;;5036299;28;20026;-70
2021/03/15 00:55:02;;;;;;;6.47;3.55;;;7.40;94.20;;;;;;5040768;28;20079;-72
2021/03/15 00:57:28;;;;;;;4.93;2.92;;;7.40;94.20;;;;;;5051004;28;20048;-70
2021/03/15 00:59:53;;;;;;;5.72;3.13;;;7.40;94.20;;;;;;5051377;28;20028;-69
2021/03/15 01:02:19;;;;;;;5.35;3.38;;;7.30;94.20;;;;;;5061615;28;20546;-69
2021/03/15 01:04:44;;;;;;;7.28;3.10;;;7.40;94.20;;;;;;5061512;28;20021;-70
2021/03/15 01:07:12;;;;;;;6.70;3.47;;;7.40;94.20;;;;;;5051742;28;20012;-70
2021/03/15 01:09:38;;;;;;;6.95;3.17;;;7.40;94.20;;;;;;5049668;28;20021;-69
2021/03/15 01:12:04;;;;;;;5.85;3.10;;;7.40;94.30;;;;;;5049488;28;20031;-72
2021/03/15 01:14:29;;;;;;;6.13;3.55;;;7.40;94.30;;;;;;5050317;28;20029;-71
2021/03/15 01:16:56;;;;;;;7.15;2.95;;;7.40;94.30;;;;;;5053523;28;20040;-70
2021/03/15 01:19:21;;;;;;;5.97;3.10;;;7.40;94.30;;;;;;5050256;28;20025;-70
2021/03/15 01:21:47;;;;;;;7.38;3.28;;;7.40;94.30;;;;;;5051958;28;20116;-70
2021/03/15 01:24:12;;;;;;;7.30;3.35;;;7.50;94.30;;;;;;5050086;28;20033;-70
2021/03/15 01:26:38;;;;;;;5.85;3.63;;;7.50;94.20;;;;;;5051676;28;20456;-70
2021/03/15 01:29:03;;;;;;;5.35;3.45;;;7.50;94.10;;;;;;5047702;28;20114;-70
2021/03/15 01:31:29;;;;;;;7.70;3.30;;;7.50;94.20;;;;;;5040190;28;20063;-70
2021/03/15 01:33:54;;;;;;;6.32;3.58;;;7.50;94.20;;;;;;5051229;28;20033;-71
2021/03/15 01:36:20;;;;;;;7.35;3.42;;;7.50;94.10;;;;;;5045496;28;20033;-70
2021/03/15 01:38:45;;;;;;;10.57;3.42;;;7.60;94.10;;;;;;5041112;28;20107;-70
2021/03/15 01:41:11;;;;;;;4.88;3.10;;;7.60;94.10;;;;;;5048464;28;20020;-70
2021/03/15 01:43:37;;;;;;;10.98;3.05;;;7.50;94.10;;;;;;5051124;28;20024;-70
2021/03/15 01:46:02;;;;;;;6.95;3.50;;;7.60;94.10;;;;;;5048691;28;20033;-70
2021/03/15 01:48:28;;;;;;;7.13;3.33;;;7.60;94.10;;;;;;5051085;28;20017;-70
2021/03/15 01:50:54;;;;;;;7.68;3.25;;;7.60;94.00;;;;;;5050231;28;20040;-70
2021/03/15 01:53:21;;;;;;;5.68;3.50;;;7.60;94.00;;;;;;5051347;28;20028;-70
2021/03/15 01:55:47;;;;;;;5.80;3.58;;;7.60;94.00;;;;;;5061474;28;20493;-70
2021/03/15 01:58:13;;;;;;;8.45;2.95;;;7.60;94.00;;;;;;5071264;28;20053;-71
2021/03/15 02:00:39;;;;;;;8.63;3.65;;;7.60;94.00;;;;;;5053617;28;20017;-70
2021/03/15 02:03:07;;;;;;;9.63;3.70;;;7.60;94.00;;;;;;5051036;28;20695;-70
2021/03/15 02:05:36;;;;;;;7.88;4.28;;;7.70;94.00;;;;;;5060929;28;20046;-70
2021/03/15 02:08:03;;;;;;;9.82;3.67;;;7.70;94.00;;;;;;5066963;28;20029;-70
2021/03/15 02:10:29;;;;;;;7.32;3.10;;;7.60;93.90;;;;;;5050236;28;20116;-71
2021/03/15 02:13:16;;;;;;;6.40;3.60;;;7.60;93.90;;;;;;5047233;28;20108;-70
2021/03/15 02:16:03;;;;;;;5.43;3.63;;;7.70;94.00;;;;;;5062928;28;20033;-70
2021/03/15 02:18:58;;;;;;;8.70;3.63;;;7.70;94.00;;;;;;5060789;28;20030;-70
2021/03/15 02:21:26;;;;;;;6.38;3.50;;;7.70;94.00;;;;;;5068326;28;20052;-70
2021/03/15 02:23:57;;;;;;;7.18;3.30;;;7.70;93.90;;;;;;5051110;28;20024;-70
2021/03/15 02:26:56;;;;;;;5.40;3.05;;;7.70;93.80;;;;;;5050659;28;20033;-69
2021/03/15 02:29:43;;;;;;;7.05;3.00;;;7.70;93.70;;;;;;5039108;28;20040;-69
2021/03/15 02:32:16;;;;;;;9.32;4.40;;;7.60;93.80;;;;;;5041408;28;20040;-69
2021/03/15 02:35:23;;;;;;;9.75;3.50;;;7.60;93.80;;;;;;5045497;28;20020;-69
2021/03/15 02:37:57;;;;;;;9.52;3.40;;;7.60;93.80;;;;;;5034812;28;20124;-69
2021/03/15 02:40:27;;;;;;;6.13;3.30;;;7.60;93.70;;;;;;5049650;28;20033;-70
2021/03/15 02:42:55;;;;;;;8.95;3.25;;;7.60;93.80;;;;;;5061983;28;20042;-70
2021/03/15 02:45:23;;;;;;;5.72;3.58;;;7.60;93.80;;;;;;5041074;28;20041;-70
2021/03/15 02:47:50;;;;;;;8.10;3.53;;;7.60;93.70;;;;;;5039434;28;20025;-70
2021/03/15 02:50:16;;;;;;;8.45;3.47;;;7.60;93.80;;;;;;5053852;28;20397;-71
2021/03/15 02:52:45;;;;;;;7.93;3.88;;;7.60;93.80;;;;;;5048970;28;20063;-70
2021/03/15 02:55:17;;;;;;;7.25;3.20;;;7.60;93.80;;;;;;5039731;28;20028;-70
2021/03/15 02:57:45;;;;;;;6.07;3.08;;;7.60;93.90;;;;;;5052136;28;20041;-70
2021/03/15 03:00:13;;;;;;;6.95;4.28;;;7.60;93.90;;;;;;5032834;28;20120;-69
2021/03/15 03:02:42;;;;;;;6.53;3.53;;;7.60;93.90;;;;;;5040774;28;20029;-70
2021/03/15 03:05:10;;;;;;;9.20;3.88;;;7.60;93.90;;;;;;5043532;28;20024;-69
2021/03/15 03:07:39;;;;;;;7.00;3.60;;;7.60;93.90;;;;;;5050109;28;20386;-69
2021/03/15 03:10:06;;;;;;;6.00;3.72;;;7.60;93.90;;;;;;5048689;28;20461;-70
2021/03/15 03:12:33;;;;;;;7.68;3.60;;;7.60;94.00;;;;;;5067230;28;20032;-69
2021/03/15 03:15:01;;;;;;;6.20;3.70;;;7.70;94.00;;;;;;5058504;28;20100;-69
2021/03/15 03:17:29;;;;;;;7.95;3.67;;;7.60;94.00;;;;;;5045557;28;20489;-69
2021/03/15 03:19:56;;;;;;;9.48;3.88;;;7.60;94.00;;;;;;5054005;28;20043;-72
2021/03/15 03:22:24;;;;;;;6.13;3.60;;;7.60;94.00;;;;;;5056833;28;20024;-70
2021/03/15 03:24:51;;;;;;;9.88;4.50;;;7.60;94.10;;;;;;5073787;28;20436;-69
2021/03/15 03:27:17;;;;;;;7.22;3.78;;;7.60;94.00;;;;;;5064604;28;20028;-70
2021/03/15 03:29:44;;;;;;;10.02;4.57;;;7.60;94.00;;;;;;5063635;28;20029;-71
2021/03/15 03:32:10;;;;;;;7.10;4.80;;;7.70;94.10;;;;;;5050905;28;20029;-71
2021/03/15 03:34:36;;;;;;;8.57;4.75;;;7.60;94.00;;;;;;5052564;28;20052;-69
2021/03/15 03:37:02;;;;;;;8.93;4.80;;;7.70;94.10;;;;;;5058482;28;20070;-68
2021/03/15 03:39:27;;;;;;;9.65;5.07;;;7.70;94.00;;;;;;5067185;28;20051;-69
2021/03/15 03:41:53;;;;;;;10.27;4.80;;;7.70;94.00;;;;;;5056223;28;20024;-68
2021/03/15 03:44:18;;;;;;;10.07;4.97;;;7.70;94.00;;;;;;5068730;28;20031;-69
2021/03/15 03:46:45;;;;;;;9.15;4.68;;;7.70;93.90;;;;;;5055311;28;20032;-71
2021/03/15 03:49:11;;;;;;;8.63;4.45;;;7.70;93.90;;;;;;5067503;28;20158;-69
2021/03/15 03:52:06;;;;;;;10.15;4.97;;;7.70;93.90;;;;;;5053322;28;20021;-69
2021/03/15 03:54:39;;;;;;;9.07;4.88;;;7.70;93.90;;;;;;5051139;28;20112;-69
2021/03/15 03:57:10;;;;;;;10.55;4.45;;;7.60;93.80;;;;;;5054964;28;20044;-71
2021/03/15 03:59:43;;;;;;;10.68;5.15;;;7.70;93.80;;;;;;5052843;28;20093;-70
2021/03/15 04:02:10;;;;;;;8.45;4.43;;;7.60;93.70;;;;;;5050054;28;20025;-70
2021/03/15 04:04:43;;;;;;;7.28;4.82;;;7.60;93.70;;;;;;5044149;28;20056;-71
2021/03/15 04:07:10;;;;;;;9.02;4.57;;;7.60;93.80;;;;;;5045832;28;20025;-72
2021/03/15 04:09:39;;;;;;;8.02;4.07;;;7.60;93.80;;;;;;5033872;28;20061;-70
2021/03/15 04:12:07;;;;;;;9.40;4.70;;;7.60;93.80;;;;;;5046533;28;20119;-69
2021/03/15 04:14:38;;;;;;;10.90;4.30;;;7.50;93.80;;;;;;5052894;28;20025;-71
2021/03/15 04:17:09;;;;;;;7.95;4.90;;;7.50;93.80;;;;;;5050005;28;20680;-69
2021/03/15 04:19:39;;;;;;;8.60;4.47;;;7.50;93.80;;;;;;5065456;28;20029;-71
2021/03/15 04:22:08;;;;;;;9.80;4.10;;;7.40;93.80;;;;;;5061743;28;20037;-71
2021/03/15 04:24:36;;;;;;;11.52;4.95;;;7.40;93.80;;;;;;5050986;28;20064;-71
2021/03/15 04:27:02;;;;;;;9.02;4.68;;;7.30;93.80;;;;;;5057041;28;20032;-71
2021/03/15 04:29:29;;;;;;;8.90;4.15;;;7.30;93.90;;;;;;5072260;28;20115;-70
2021/03/15 04:31:55;;;;;;;8.68;4.07;;;7.30;93.80;;;;;;5049309;28;20029;-70
2021/03/15 04:34:22;;;;;;;9.27;4.32;;;7.30;93.80;;;;;;5032276;28;20192;-70
2021/03/15 04:36:49;;;;;;;8.98;4.40;;;7.30;93.80;;;;;;5047005;28;20096;-70
2021/03/15 04:39:14;;;;;;;10.15;4.45;;;7.20;93.80;;;;;;5052227;28;20060;-70
2021/03/15 04:41:41;;;;;;;10.20;4.88;;;7.20;93.90;;;;;;5053997;28;20110;-70
2021/03/15 04:44:07;;;;;;;10.02;4.95;;;7.20;94.00;;;;;;5072054;28;20035;-70
2021/03/15 04:46:33;;;;;;;9.75;4.82;;;7.20;94.00;;;;;;5057427;28;20032;-70
2021/03/15 04:49:06;;;;;;;8.40;4.22;;;7.20;94.00;;;;;;5071888;28;20096;-70
2021/03/15 04:51:32;;;;;;;10.27;4.70;;;7.20;94.00;;;;;;5059011;28;20543;-70
2021/03/15 04:53:58;;;;;;;15.85;4.50;;;7.20;94.00;;;;;;5050891;28;20033;-70
2021/03/15 04:56:25;;;;;;;8.23;4.50;;;7.20;94.00;;;;;;5052113;28;20075;-70
2021/03/15 04:58:52;;;;;;;9.85;4.65;;;7.20;94.00;;;;;;5063132;28;20041;-70
2021/03/15 05:01:20;;;;;;;9.30;4.15;;;7.20;94.10;;;;;;5042538;28;20505;-70
2021/03/15 05:03:49;;;;;;;10.35;4.32;;;7.20;94.00;;;;;;5050252;28;20028;-69
2021/03/15 05:06:15;;;;;;;8.60;4.00;;;7.20;94.00;;;;;;5050974;28;20527;-69
2021/03/15 05:08:45;;;;;;;11.18;4.45;;;7.20;94.00;;;;;;5046278;28;20021;-70
2021/03/15 05:11:11;;;;;;;10.23;4.88;;;7.20;94.00;;;;;;5031997;28;20040;-69
2021/03/15 05:13:39;;;;;;;8.15;4.30;;;7.20;93.90;;;;;;5067025;28;20365;-69
2021/03/15 05:16:07;;;;;;;14.50;4.45;;;7.20;93.90;;;;;;5052048;28;20539;-71
2021/03/15 05:18:33;;;;;;;10.98;4.95;;;7.20;94.00;;;;;;5067290;28;20039;-69
2021/03/15 05:21:00;;;;;;;9.82;4.50;;;7.20;94.00;;;;;;5051129;28;20458;-68
2021/03/15 05:23:27;;;;;;;8.25;4.50;;;7.30;93.90;;;;;;5066696;28;20043;-67
2021/03/15 05:25:54;;;;;;;9.90;5.13;;;7.20;93.90;;;;;;5033133;28;20037;-69
2021/03/15 05:28:21;;;;;;;8.77;4.60;;;7.20;93.90;;;;;;5049458;28;20032;-69
2021/03/15 05:30:49;;;;;;;7.70;4.28;;;7.20;93.90;;;;;;5031671;28;20026;-68
2021/03/15 05:33:19;;;;;;;8.88;4.57;;;7.20;93.90;;;;;;5065791;28;20054;-69
2021/03/15 05:35:46;;;;;;;12.85;4.90;;;7.20;93.90;;;;;;5051351;28;20052;-69
2021/03/15 05:38:12;;;;;;;10.02;5.07;;;7.20;93.90;;;;;;5065147;28;20384;-68
2021/03/15 05:40:43;;;;;;;9.65;5.35;;;7.20;93.80;;;;;;5051509;28;20108;-68
2021/03/15 05:43:23;;;;;;;9.38;5.30;;;7.20;93.70;;;;;;5060915;28;20032;-69
2021/03/15 05:46:28;;;;;;;8.15;4.80;;;7.20;93.70;;;;;;5031450;28;20076;-69
2021/03/15 05:49:29;;;;;;;12.55;4.68;;;7.20;93.70;;;;;;5050778;28;20131;-69
2021/03/15 05:52:07;;;;;;;11.48;4.82;;;7.20;93.60;;;;;;5049980;28;20043;-69
2021/03/15 05:55:00;;;;;;;9.32;5.03;;;7.20;93.60;;;;;;5050155;28;20032;-69
2021/03/15 05:57:35;;;;;;;11.15;5.18;;;7.20;93.60;;;;;;5053427;28;20120;-69
2021/03/15 06:00:36;;;;;;;7.38;4.95;;;7.20;93.60;;;;;;5051582;28;20060;-69
2021/03/15 06:03:29;;;;;;;11.00;5.13;;;7.20;93.60;;;;;;5050313;28;20440;-69
2021/03/15 06:06:01;;;;;;;12.15;5.13;;;7.10;93.60;;;;;;5047419;28;20366;-69
2021/03/15 06:08:34;;;;;;;8.50;4.15;;;7.20;93.60;;;;;;5055881;28;20065;-69
2021/03/15 06:11:08;;;;;;;11.98;5.15;;;7.20;93.60;;;;;;5035973;28;20409;-69
2021/03/15 06:13:34;;;;;;;8.43;4.93;;;7.30;93.60;;;;;;5056151;28;20532;-69
2021/03/15 06:16:05;;;;;;;14.65;5.07;;;7.30;93.60;;;;;;5041700;28;20481;-69
2021/03/15 06:18:31;;;;;;;13.20;5.20;;;7.40;93.50;;;;;;5054622;28;20025;-69
2021/03/15 06:20:58;;;;;;;12.65;5.22;;;7.30;93.40;;;;;;5047496;28;20355;-69
2021/03/15 06:23:24;;;;;;;13.45;5.25;;;7.40;93.50;;;;;;5054032;28;20036;-69
2021/03/15 06:25:50;;;;;;;10.48;4.75;;;7.40;93.40;;;;;;5046235;28;20025;-70
2021/03/15 06:28:17;;;;;;;9.00;4.85;;;7.40;93.30;;;;;;5070009;28;20104;-69
2021/03/15 06:30:44;;;;;;;10.52;5.18;;;7.40;93.30;;;;;;5067000;28;20071;-70
2021/03/15 06:33:12;;;;;;;9.85;4.45;;;7.40;93.20;;;;;;5053572;28;20033;-71
2021/03/15 06:35:42;;;;;;;9.27;4.78;;;7.50;93.10;;;;;;5054082;28;20091;-68
2021/03/15 06:38:08;;;;;;;8.65;4.97;;;7.50;93.10;;;;;;5053475;28;20029;-68
2021/03/15 06:40:38;;;;;;;10.63;4.82;;;7.50;93.00;;;;;;5049407;28;20029;-67
2021/03/15 06:43:05;;;;;;;12.48;4.82;;;7.50;93.00;;;;;;5065978;28;20610;-68
2021/03/15 06:45:31;;;;;;;11.95;4.40;;;7.50;93.10;;;;;;5062898;28;20032;-68
2021/03/15 06:47:58;;;;;;;9.68;4.55;;;7.50;93.00;;;;;;5061682;28;20039;-68
2021/03/15 06:50:23;;;;;;;10.60;4.68;;;7.50;92.90;;;;;;5053495;28;20021;-68
2021/03/15 06:52:51;;;;;;;15.10;5.03;;;7.60;92.80;;;;;;5053001;28;20033;-68
2021/03/15 06:55:22;;;;;;;10.65;4.88;;;7.60;92.80;;;;;;5034602;28;20060;-68
2021/03/15 06:57:48;;;;;;;11.50;4.70;;;7.60;92.80;;;;;;5062946;28;20056;-68
2021/03/15 07:00:16;;;;;;;11.38;5.10;;;7.70;93.00;;;;;;5053694;28;20105;-67
2021/03/15 07:02:41;;;;;;;13.35;4.60;;;7.70;92.70;;;;;;5051035;28;20082;-67
2021/03/15 07:05:10;;;;;;;8.30;4.88;;;7.70;92.60;;;;;;5052905;28;20416;-67
2021/03/15 07:07:38;;;;;;;11.52;4.72;;;7.80;92.50;;;;;;5053171;28;20090;-68
2021/03/15 07:10:14;;;;;;;15.70;5.50;;;7.80;92.50;;;;;;5041899;28;20029;-68
2021/03/15 07:12:40;;;;;;;8.95;4.78;;;7.80;92.40;;;;;;5046955;28;20095;-68
2021/03/15 07:15:07;;;;;;;10.40;5.32;;;7.90;92.30;;;;;;5051785;28;20501;-69
2021/03/15 07:17:33;;;;;;;13.05;5.38;;;7.90;92.20;;;;;;5052814;28;20064;-68
2021/03/15 07:19:58;;;;;;;9.65;4.65;;;7.90;92.20;;;;;;5052031;28;20033;-69
2021/03/15 07:22:26;;;;;;;10.23;4.93;;;7.90;92.20;;;;;;5060705;28;20568;-69
2021/03/15 07:25:06;;;;;;;10.73;4.30;;;7.90;92.20;;;;;;5058989;28;20022;-69
2021/03/15 07:27:34;;;;;;;8.38;4.70;;;8.00;92.40;;;;;;5050946;28;20021;-69
2021/03/15 07:30:28;;;;;;;9.25;4.40;;;8.00;92.00;;;;;;5053448;28;20032;-68
2021/03/15 07:32:58;;;;;;;7.40;4.80;;;8.00;91.90;;;;;;5053615;28;20037;-69
2021/03/15 07:35:33;;;;;;;13.40;4.70;;;8.10;91.80;;;;;;5051550;28;20033;-68
2021/03/15 07:37:59;;;;;;;8.30;4.40;;;8.00;91.80;;;;;;5061044;28;20041;-68
2021/03/15 07:40:31;;;;;;;13.85;5.15;;;8.10;91.80;;;;;;5052416;28;20471;-68
2021/03/15 07:42:58;;;;;;;9.95;4.82;;;8.10;92.10;;;;;;5051305;28;20048;-68
2021/03/15 07:45:35;;;;;;;11.55;4.85;;;8.10;91.80;;;;;;5058822;28;20091;-70
2021/03/15 07:48:08;;;;;;;7.75;4.43;;;8.10;91.80;;;;;;5048949;28;20028;-69
2021/03/15 07:50:35;;;;;;;8.63;4.18;;;8.20;91.70;;;;;;5053413;28;20029;-69
2021/03/15 07:53:03;;;;;;;10.27;4.70;;;8.20;91.60;;;;;;5048844;28;20024;-69
2021/03/15 07:55:39;;;;;;;10.10;5.50;;;8.20;91.60;;;;;;5061654;28;20029;-69
2021/03/15 07:58:34;;;;;;;7.22;4.40;;;8.30;91.60;;;;;;5057838;28;20087;-69
2021/03/15 08:01:01;;;;;;;;;;;8.30;91.50;;;;;;5052893;28;20025;-69
2021/03/15 08:03:27;;;;;;;12.63;4.72;;;8.30;91.60;;;;;;5051142;28;19912;-69
2021/03/15 08:05:58;;;;;;;8.15;4.68;;;8.30;91.50;;;;;;5052301;28;20101;-69
2021/03/15 08:08:23;;;;;;;7.22;4.30;;;8.40;91.40;;;;;;5053148;28;20025;-69
2021/03/15 08:10:50;;;;;;;7.35;4.57;;;8.50;91.40;;;;;;5036450;28;20053;-69
2021/03/15 08:13:22;;;;;;;11.60;4.95;;;8.50;91.60;;;;;;5048754;28;20116;-68
2021/03/15 08:15:50;;;;;;;7.93;3.97;;;8.50;91.40;;;;;;5045151;28;20025;-69
2021/03/15 08:18:20;;;;;;;10.68;4.45;;;8.60;91.50;;;;;;5035906;28;20029;-69
2021/03/15 08:20:49;;;;;;;12.77;4.85;;;8.60;91.40;;;;;;5051179;28;20017;-69
2021/03/15 08:23:18;;;;;;;8.82;4.68;;;8.70;91.50;;;;;;5051198;28;20037;-69
2021/03/15 08:25:44;;;;;;;7.45;5.18;;;8.80;91.30;;;;;;5052206;28;20909;-70
2021/03/15 08:28:12;;;;;;;8.68;4.50;;;8.90;91.40;;;;;;5050914;28;20033;-71
2021/03/15 08:30:42;;;;;;;7.00;4.20;;;9.00;91.30;;;;;;5052464;28;20033;-73
2021/03/15 08:33:12;;;;;;;11.02;5.40;;;9.00;91.10;;;;;;5048810;28;20071;-72
2021/03/15 08:35:38;;;;;;;8.50;4.43;;;9.10;91.10;;;;;;5068666;28;20102;-68
2021/03/15 08:38:05;;;;;;;7.85;4.40;;;9.20;91.00;;;;;;5052154;28;20029;-67
2021/03/15 08:40:49;;;;;;;9.68;5.97;;;9.30;91.00;;;;;;5052793;28;20489;-67
2021/03/15 08:43:17;;;;;;;9.82;5.18;;;9.30;90.80;;;;;;5057926;28;20040;-67
2021/03/15 08:45:57;;;;;;;7.70;5.18;;;9.30;90.50;;;;;;5072588;28;20028;-67
2021/03/15 08:48:37;;;;;;;7.90;4.57;;;9.40;90.50;;;;;;5048513;28;20040;-67
2021/03/15 08:51:12;;;;;;;7.60;4.68;;;9.50;90.50;;;;;;5069051;28;20024;-67
2021/03/15 08:53:41;;;;;;;;;;;9.50;90.30;;;;;;5049931;28;20021;-67
2021/03/15 08:56:17;;;;;;;9.40;5.78;;;9.60;90.50;;;;;;5050594;28;19913;-67
2021/03/15 08:58:44;;;;;;;9.02;5.72;;;9.60;90.30;;;;;;5053663;28;20492;-68
2021/03/15 09:01:12;;;;;;;10.93;5.00;;;9.70;90.10;;;;;;5053966;28;20037;-67
2021/03/15 09:03:57;;;;;;;11.70;5.55;;;9.70;90.00;;;;;;5050715;28;20021;-68
2021/03/15 09:06:38;;;;;;;8.90;5.20;;;9.80;89.70;;;;;;5051778;28;20025;-68
2021/03/15 09:09:05;;;;;;;8.25;4.68;;;9.80;89.30;;;;;;5049833;28;20450;-68
2021/03/15 09:11:34;;;;;;;12.23;5.15;;;9.90;89.30;;;;;;5048825;28;20116;-68
2021/03/15 09:14:18;;;;;;;9.00;5.05;;;9.90;89.20;;;;;;5050955;28;20025;-67
2021/03/15 09:16:49;;;;;;;9.38;5.10;;;10.00;89.10;;;;;;5038749;28;20092;-67
2021/03/15 09:19:17;;;;;;;7.72;5.35;;;9.90;88.80;;;;;;5051129;28;20025;-67
2021/03/15 09:21:51;;;;;;;8.52;5.25;;;9.90;88.70;;;;;;5049059;28;20117;-67
2021/03/15 09:24:34;;;;;;;7.53;5.03;;;10.00;88.70;;;;;;5050484;28;20028;-67
2021/03/15 09:27:02;;;;;;;8.25;5.10;;;10.00;88.40;;;;;;5049129;28;20037;-68
2021/03/15 09:29:30;;;;;;;5.90;4.43;;;10.10;87.90;;;;;;5050838;28;20029;-67
2021/03/15 09:32:10;;;;;;;7.53;4.38;;;10.10;87.60;;;;;;5048650;28;20029;-67
2021/03/15 09:34:36;;;;;;;9.10;4.00;;;10.10;87.10;;;;;;5051673;28;20108;-67
2021/03/15 09:37:03;;;;;;;6.75;4.43;;;10.20;86.40;;;;;;5050062;28;20609;-68
2021/03/15 09:39:29;;;;;;;6.35;3.90;;;10.20;85.90;;;;;;5048653;28;20513;-68
2021/03/15 09:41:57;;;;;;;6.78;3.50;;;10.30;86.00;;;;;;5050971;28;20025;-66
2021/03/15 09:44:24;;;;;;;7.38;4.10;;;10.30;85.80;;;;;;5049889;28;20036;-67
2021/03/15 09:46:51;;;;;;;6.80;3.67;;;10.30;84.90;;;;;;5050369;28;20207;-68
2021/03/15 09:49:40;;;;;;;5.80;3.88;;;10.30;84.50;;;;;;5029948;28;20466;-68
2021/03/15 09:52:11;;;;;;;7.22;3.88;;;10.30;84.70;;;;;;5048859;28;20033;-68
2021/03/15 09:54:53;;;;;;;6.65;3.90;;;10.30;84.80;;;;;;5047989;28;20377;-72
2021/03/15 09:57:20;;;;;;;6.20;3.65;;;10.30;84.70;;;;;;5039584;28;524436;-69
2021/03/15 09:59:47;;;;;;;8.20;4.07;;;10.40;84.70;;;;;;5057398;28;20466;-69
2021/03/15 10:02:26;;;;;;;7.18;4.10;;;10.50;84.80;;;;;;5039256;28;20025;-71
2021/03/15 10:04:52;;;;;;;5.75;3.60;;;10.50;85.20;;;;;;5040547;28;20470;-73
2021/03/15 10:07:18;;;;;;;5.93;3.40;;;10.60;84.70;;;;;;5050565;28;20028;-72
2021/03/15 10:09:44;;;;;;;7.00;4.20;;;10.70;84.70;;;;;;5045074;28;20028;-71
2021/03/15 10:12:21;;;;;;;8.15;4.80;;;10.80;84.00;;;;;;5057759;28;20024;-70
2021/03/15 10:14:57;;;;;;;5.88;3.60;;;10.90;83.60;;;;;;5059355;28;20026;-73
2021/03/15 10:17:23;;;;;;;6.35;3.22;;;11.00;83.00;;;;;;5051439;28;20032;-73
2021/03/15 10:19:48;;;;;;;6.38;2.78;;;11.00;82.50;;;;;;5049941;28;20018;-72
2021/03/15 10:22:16;;;;;;;5.45;2.95;;;11.10;81.90;;;;;;5039664;28;20033;-72
2021/03/15 10:24:43;;;;;;;5.07;2.95;;;11.20;81.70;;;;;;5040429;28;20037;-73
2021/03/15 10:27:15;;;;;;;5.15;3.08;;;11.30;81.70;;;;;;5064875;28;20039;-73
2021/03/15 10:29:42;;;;;;;8.00;3.40;;;11.40;81.80;;;;;;5050654;28;20116;-73
2021/03/15 10:32:08;;;;;;;4.65;2.65;;;11.50;81.30;;;;;;5055185;28;20111;-71
2021/03/15 10:34:35;;;;;;;6.28;2.75;;;11.60;80.70;;;;;;5037444;28;20048;-72
2021/03/15 10:37:01;;;;;;;6.07;2.38;;;11.60;80.00;;;;;;5045216;28;20040;-72
2021/03/15 10:39:27;;;;;;;4.75;2.70;;;11.70;79.20;;;;;;5050343;28;20032;-72
2021/03/15 10:41:54;;;;;;;4.80;2.88;;;11.70;78.70;;;;;;5054624;28;20029;-72
2021/03/15 10:44:22;;;;;;;5.55;2.65;;;11.70;78.70;;;;;;5041334;28;20080;-72
2021/03/15 10:46:50;;;;;;;6.95;2.47;;;11.70;78.10;;;;;;5037188;28;20405;-70
2021/03/15 10:49:26;;;;;;;5.53;2.70;;;11.70;76.70;;;;;;5047303;28;20128;-71
2021/03/15 10:51:53;;;;;;;3.53;2.30;;;11.70;76.90;;;;;;5067807;28;20082;-70
2021/03/15 10:54:30;;;;;;;4.03;2.20;;;11.70;77.20;;;;;;5043788;28;20024;-72
2021/03/15 10:57:18;;;;;;;4.70;2.55;;;11.80;76.70;;;;;;5052548;28;20044;-71
2021/03/15 10:59:44;;;;;;;4.20;2.50;;;11.80;77.10;;;;;;5053431;28;20132;-72
2021/03/15 11:02:18;;;;;;;3.05;1.98;;;11.90;76.20;;;;;;5062015;28;20028;-72
2021/03/15 11:04:59;;;;;;;2.53;1.80;;;11.70;76.10;;;;;;5046378;28;20026;-71
2021/03/15 11:07:28;;;;;;;4.35;1.65;;;11.70;75.70;;;;;;5054497;28;20032;-71
2021/03/15 11:10:14;;;;;;;4.57;1.88;;;11.80;75.40;;;;;;5060164;28;20071;-71
2021/03/15 11:12:45;;;;;;;4.18;1.70;;;11.80;75.30;;;;;;5061344;28;20119;-70
2021/03/15 11:15:39;;;;;;;3.63;2.03;;;11.80;74.50;;;;;;5053000;28;20033;-72
2021/03/15 11:18:23;;;;;;;3.65;1.77;;;11.80;74.30;;;;;;5050220;28;20073;-72
2021/03/15 11:20:58;;;;;;;2.78;1.60;;;11.80;74.10;;;;;;5053471;28;20033;-72
2021/03/15 11:23:37;;;;;;;;;;;11.90;73.70;;;;;;5055415;28;20532;-73
2021/03/15 11:26:10;;;;;;;3.95;1.60;;;12.00;74.60;;;;;;5053211;28;19930;-71
2021/03/15 11:28:47;;;;;;;2.97;1.75;;;12.00;73.60;;;;;;5036890;28;20056;-70
2021/03/15 11:31:15;;;;;;;3.40;1.92;;;12.00;72.80;;;;;;5049639;28;20053;-70
2021/03/15 11:33:41;;;;;;;2.42;1.60;;;12.10;72.40;;;;;;5060136;28;20028;-69
2021/03/15 11:36:15;;;;;;;3.42;1.65;;;12.10;72.80;;;;;;5051490;28;20511;-73
2021/03/15 11:38:50;;;;;;;2.53;1.52;;;12.20;72.10;;;;;;5047958;28;20033;-72
2021/03/15 11:41:21;;;;;;;2.70;1.80;;;12.30;71.00;;;;;;5052246;28;20017;-69
2021/03/15 11:43:47;;;;;;;2.40;1.60;;;12.40;70.30;;;;;;5052173;28;20029;-74
2021/03/15 11:46:13;;;;;;;2.65;1.40;;;12.40;70.10;;;;;;5040160;28;20037;-70
2021/03/15 11:48:39;;;;;;;3.03;1.55;;;12.40;69.20;;;;;;5052532;28;20485;-70
2021/03/15 11:51:05;;;;;;;2.47;1.67;;;12.40;68.70;;;;;;5055620;28;20497;-70
2021/03/15 11:53:30;;;;;;;2.05;1.50;;;12.40;68.30;;;;;;5052120;28;20032;-70
2021/03/15 11:55:56;;;;;;;2.78;1.67;;;12.40;68.20;;;;;;5052233;28;20481;-70
2021/03/15 11:58:21;;;;;;;2.63;1.80;;;12.30;68.50;;;;;;5052061;28;20560;-69
2021/03/15 12:00:47;;;;;;;3.60;1.80;;;12.30;69.10;;;;;;5047775;28;20056;-70
2021/03/15 12:03:12;;;;;;;2.45;1.50;;;12.20;69.10;;;;;;5051239;28;20029;-69
2021/03/15 12:05:38;;;;;;;3.05;1.83;;;12.20;69.40;;;;;;5050423;28;20033;-70
2021/03/15 12:08:04;;;;;;;2.20;1.35;;;12.20;69.80;;;;;;5066008;28;20029;-69
2021/03/15 12:10:29;;;;;;;3.72;1.70;;;12.20;70.00;;;;;;5066007;28;20029;-69
2021/03/15 12:12:55;;;;;;;2.92;1.60;;;12.20;69.00;;;;;;5044331;28;20029;-70
2021/03/15 12:15:20;;;;;;;4.28;1.70;;;12.30;69.10;;;;;;5033506;28;20104;-70
2021/03/15 12:17:47;;;;;;;2.28;1.90;;;12.30;68.80;;;;;;5053827;28;20033;-70
2021/03/15 12:20:12;;;;;;;2.80;1.80;;;12.30;68.70;;;;;;5052410;28;20029;-70
2021/03/15 12:22:39;;;;;;;4.72;1.90;;;12.30;67.70;;;;;;5055231;28;20021;-71
2021/03/15 12:25:05;;;;;;;4.30;1.70;;;12.30;67.90;;;;;;5052236;28;20035;-68
2021/03/15 12:27:31;;;;;;;2.67;1.92;;;12.40;67.40;;;;;;5055459;28;20036;-68
2021/03/15 12:29:57;;;;;;;3.22;1.70;;;12.40;66.80;;;;;;5054570;28;20167;-68
2021/03/15 12:32:23;;;;;;;3.95;2.20;;;12.40;66.70;;;;;;5051098;28;20466;-68
2021/03/15 12:34:49;;;;;;;3.97;2.00;;;12.40;66.70;;;;;;5052236;28;20025;-69
2021/03/15 12:37:14;;;;;;;5.28;2.22;;;12.50;65.80;;;;;;5049181;28;20094;-69
2021/03/15 12:39:40;;;;;;;2.78;1.88;;;12.60;64.80;;;;;;5043666;28;20031;-68
2021/03/15 12:42:06;;;;;;;4.35;1.83;;;12.60;63.60;;;;;;5051758;28;20108;-69
2021/03/15 12:44:31;;;;;;;5.55;2.55;;;12.60;63.20;;;;;;5049439;28;20543;-69
2021/03/15 12:46:57;;;;;;;4.82;3.20;;;12.60;62.50;;;;;;5049870;28;20393;-68
2021/03/15 12:49:22;;;;;;;4.65;2.72;;;12.60;62.40;;;;;;5052003;28;20334;-69
2021/03/15 12:51:48;;;;;;;3.20;2.42;;;12.50;61.00;;;;;;5056677;28;20087;-69
2021/03/15 12:54:14;;;;;;;4.43;2.63;;;12.40;62.20;;;;;;5066286;28;20504;-68
2021/03/15 12:56:40;;;;;;;5.00;2.45;;;12.30;63.80;;;;;;5046657;28;20059;-68
2021/03/15 12:59:05;;;;;;;5.22;3.10;;;12.20;65.20;;;;;;5033785;28;20048;-69
2021/03/15 13:01:31;;;;;;;4.38;2.83;;;12.20;66.20;;;;;;5061908;28;20024;-68
2021/03/15 13:03:56;;;;;;;4.60;3.08;;;12.10;67.20;;;;;;5058072;28;20025;-68
2021/03/15 13:06:22;;;;;;;5.43;2.60;;;12.10;67.70;;;;;;5050559;28;20093;-69